Time;durP1;ratioP1;P1;durP2;ratioP2;P2;SDS_P1;SDS_P2;PMS_P1;PMS_P2;Temp;Humidity;BMP_temperature;BMP_pressure;BME280_temperature;BME280_humidity;BME280_pressure;Samples;Min_cycle;Max_cycle;Signal;HPM_P1;HPM_P2
2021/01/03 00:02:07;185778.00;0.62;321.44;0.00;0.00;0.62;;;;;4.30;1.00;;;;;;2273523;61;1298;-83
2021/01/03 00:04:35;144125.00;0.48;249.68;0.00;0.00;0.62;;;;;4.30;1.00;;;;;;2266476;61;1310;-84
2021/01/03 00:07:02;83716.00;0.28;145.46;0.00;0.00;0.62;;;;;4.60;1.00;;;;;;2264942;61;1997;-85
2021/01/03 00:09:28;66305.00;0.22;115.37;0.00;0.00;0.62;;;;;4.70;1.00;;;;;;2265083;61;1077;-84
2021/01/03 00:11:55;222540.00;0.74;384.71;0.00;0.00;0.62;;;;;4.90;1.00;;;;;;2265020;61;1114;-85
2021/01/03 00:14:22;85260.00;0.28;148.12;0.00;0.00;0.62;;;;;5.20;1.00;;;;;;2258378;61;1030;-84
2021/01/03 00:16:54;109276.00;0.36;189.58;0.00;0.00;0.62;;;;;5.30;1.00;;;;;;2264892;61;1553;-85
2021/01/03 00:19:21;74769.00;0.25;130.00;0.00;0.00;0.62;;;;;5.20;1.00;;;;;;2265056;61;1033;-85
2021/01/03 00:21:49;106959.00;0.36;185.58;0.00;0.00;0.62;;;;;5.10;1.00;;;;;;2261641;61;1024;-86
2021/01/03 00:24:15;80147.00;0.27;139.29;0.00;0.00;0.62;;;;;4.80;1.00;;;;;;2266389;61;1080;-85
2021/01/03 00:26:42;78504.00;0.26;136.45;0.00;0.00;0.62;;;;;5.00;1.00;;;;;;2273337;61;1998;-85
2021/01/03 00:29:08;42307.00;0.14;73.88;0.00;0.00;0.62;;;;;5.30;1.00;;;;;;2273503;61;1074;-86
2021/01/03 00:31:37;175819.00;0.59;304.29;0.00;0.00;0.62;;;;;5.60;1.00;;;;;;2273475;61;1101;-85
2021/01/03 00:34:05;121640.00;0.41;210.91;0.00;0.00;0.62;;;;;5.60;1.00;;;;;;2273468;61;1125;-87
2021/01/03 00:36:32;161501.00;0.54;279.63;0.00;0.00;0.62;;;;;5.70;1.00;;;;;;2273439;61;1464;-85
2021/01/03 00:38:59;199275.00;0.66;344.68;0.00;0.00;0.62;;;;;5.70;1.00;;;;;;2268971;61;968;-86
2021/01/03 00:41:26;165999.00;0.55;287.37;0.00;0.00;0.62;;;;;5.80;1.00;;;;;;2268955;61;1038;-85
2021/01/03 00:43:52;90359.00;0.30;156.93;0.00;0.00;0.62;;;;;5.50;1.00;;;;;;2268924;61;1150;-85
2021/01/03 00:46:19;41815.00;0.14;73.03;0.00;0.00;0.62;;;;;5.00;1.00;;;;;;2268859;61;1924;-85
2021/01/03 00:48:45;62277.00;0.21;108.41;0.00;0.00;0.62;;;;;4.90;1.00;;;;;;2268967;61;1180;-84
2021/01/03 00:51:12;42397.00;0.14;74.04;0.00;0.00;0.62;;;;;5.10;1.00;;;;;;2268896;61;1119;-85
2021/01/03 00:53:38;237777.00;0.79;410.93;0.00;0.00;0.62;;;;;5.10;1.00;;;;;;2268919;61;1130;-84
2021/01/03 00:56:06;8617.00;0.03;15.55;0.00;0.00;0.62;;;;;4.90;1.00;;;;;;2269341;61;1424;-84
2021/01/03 00:58:32;129543.00;0.43;224.54;0.00;0.00;0.62;;;;;4.60;1.00;;;;;;2266296;61;1236;-83
2021/01/03 01:00:59;118123.00;0.39;204.84;0.00;0.00;0.62;;;;;4.60;1.00;;;;;;2273406;61;1129;-85
2021/01/03 01:03:28;106487.00;0.35;184.77;0.00;0.00;0.62;;;;;4.70;1.00;;;;;;2269635;61;1020;-83
2021/01/03 01:05:55;49554.00;0.17;86.41;0.00;0.00;0.62;;;;;4.90;1.00;;;;;;2266258;61;1326;-85
2021/01/03 01:08:21;69016.00;0.23;120.06;0.00;0.00;0.62;;;;;5.00;1.00;;;;;;2266239;61;2009;-85
2021/01/03 01:10:48;29135.00;0.10;51.09;0.00;0.00;0.62;;;;;4.80;1.00;;;;;;2273327;61;1109;-86
2021/01/03 01:13:15;124779.00;0.42;216.33;0.00;0.00;0.62;;;;;4.80;1.00;;;;;;2273323;61;1189;-87
2021/01/03 01:15:42;10420.00;0.03;18.68;0.00;0.00;0.62;;;;;4.90;1.00;;;;;;2273278;61;1439;-85
2021/01/03 01:18:09;24618.00;0.08;43.27;0.00;0.00;0.62;;;;;4.90;1.00;;;;;;2273344;61;1146;-85
2021/01/03 01:20:36;88987.00;0.30;154.56;0.00;0.00;0.62;;;;;4.90;1.00;;;;;;2273284;61;1095;-85
2021/01/03 01:23:04;66180.00;0.22;115.16;0.00;0.00;0.62;;;;;4.90;1.00;;;;;;2273263;61;1656;-87
2021/01/03 01:25:32;72661.00;0.24;126.36;0.00;0.00;0.62;;;;;4.70;1.00;;;;;;2273146;61;1409;-85
2021/01/03 01:27:59;30334.00;0.10;53.16;0.00;0.00;0.62;;;;;4.70;1.00;;;;;;2273231;61;1912;-85
2021/01/03 01:30:29;70403.00;0.23;122.46;0.00;0.00;0.62;;;;;4.60;1.00;;;;;;2273280;61;1058;-85
2021/01/03 01:32:56;31861.00;0.11;55.80;0.00;0.00;0.62;;;;;4.80;1.00;;;;;;2273234;61;1180;-85
2021/01/03 01:35:27;0.00;0.00;0.62;0.00;0.00;0.62;;;;;5.10;1.00;;;;;;2273193;61;1323;-86
2021/01/03 01:37:54;8969.00;0.03;16.16;0.00;0.00;0.62;;;;;5.10;1.00;;;;;;2266209;61;969;-84
2021/01/03 01:40:25;86419.00;0.29;150.12;0.00;0.00;0.62;;;;;4.90;1.00;;;;;;2273263;61;956;-85
2021/01/03 01:42:52;0.00;0.00;0.62;0.00;0.00;0.62;;;;;4.70;1.00;;;;;;2273243;61;1125;-86
2021/01/03 01:45:25;10881.00;0.04;19.48;0.00;0.00;0.62;;;;;4.80;1.00;;;;;;2269451;61;1393;-85
2021/01/03 01:48:01;25690.00;0.09;45.12;0.00;0.00;0.62;;;;;4.80;1.00;;;;;;2264680;61;2006;-86
2021/01/03 01:50:38;0.00;0.00;0.62;0.00;0.00;0.62;;;;;4.70;1.00;;;;;;2264762;61;1158;-86
2021/01/03 01:53:07;16911.00;0.06;29.92;0.00;0.00;0.62;;;;;4.70;1.00;;;;;;2264755;61;1066;-86
2021/01/03 01:55:39;0.00;0.00;0.62;0.00;0.00;0.62;;;;;4.70;1.00;;;;;;2264664;61;1456;-86
2021/01/03 01:58:17;0.00;0.00;0.62;0.00;0.00;0.62;;;;;4.90;1.00;;;;;;2261268;61;948;-86
2021/01/03 02:00:52;37053.00;0.12;64.79;0.00;0.00;0.62;;;;;5.00;1.00;;;;;;2258055;61;991;-86
2021/01/03 02:03:28;205804.00;0.69;355.91;0.00;0.00;0.62;;;;;5.00;1.00;;;;;;2258009;61;1106;-85
2021/01/03 02:06:01;0.00;0.00;0.62;0.00;0.00;0.62;;;;;5.00;1.00;;;;;;2270859;61;1348;-86
2021/01/03 02:08:35;15578.00;0.05;27.61;0.00;0.00;0.62;;;;;5.00;1.00;;;;;;2276724;61;1995;-85
2021/01/03 02:11:03;0.00;0.00;0.62;0.00;0.00;0.62;;;;;5.00;1.00;;;;;;2276554;61;1121;-84
2021/01/03 02:13:36;2002.00;0.01;4.09;0.00;0.00;0.62;;;;;5.00;1.00;;;;;;2266729;61;1146;-85
2021/01/03 02:16:07;0.00;0.00;0.62;0.00;0.00;0.62;;;;;5.10;1.00;;;;;;2269990;61;1322;-85
2021/01/03 02:18:34;53790.00;0.18;93.74;0.00;0.00;0.62;;;;;5.10;1.00;;;;;;2276779;61;1093;-85
2021/01/03 02:21:15;2038.00;0.01;4.15;0.00;0.00;0.62;;;;;5.00;1.00;;;;;;2276742;61;1133;-85
2021/01/03 02:23:53;10194.00;0.03;18.29;0.00;0.00;0.62;;;;;5.00;1.00;;;;;;2275231;61;1046;-85
2021/01/03 02:26:24;1406.00;0.00;3.06;0.00;0.00;0.62;;;;;5.20;1.00;;;;;;2268437;61;1928;-85
2021/01/03 02:28:51;8464.00;0.03;15.29;0.00;0.00;0.62;;;;;5.10;1.00;;;;;;2261920;61;1030;-85
2021/01/03 02:31:23;19248.00;0.06;33.97;0.00;0.00;0.62;;;;;5.00;1.00;;;;;;2268559;61;1142;-86
2021/01/03 02:33:52;38702.00;0.13;67.64;0.00;0.00;0.62;;;;;4.90;1.00;;;;;;2265246;61;1015;-87
2021/01/03 02:36:26;0.00;0.00;0.62;0.00;0.00;0.62;;;;;4.80;1.00;;;;;;2261888;61;1456;-85
2021/01/03 02:39:03;6893.00;0.02;12.57;0.00;0.00;0.62;;;;;4.70;1.00;;;;;;2268667;61;1099;-87
2021/01/03 02:41:31;57740.00;0.19;100.57;0.00;0.00;0.62;;;;;4.80;1.00;;;;;;2265241;61;1146;-86
2021/01/03 02:43:57;44551.00;0.15;77.76;0.00;0.00;0.62;;;;;4.60;1.00;;;;;;2268667;61;1123;-85
2021/01/03 02:46:25;68016.00;0.23;118.33;0.00;0.00;0.62;;;;;4.60;1.00;;;;;;2268555;61;2004;-87
2021/01/03 02:48:52;33586.00;0.11;58.79;0.00;0.00;0.62;;;;;4.60;1.00;;;;;;2268632;61;1068;-86
2021/01/03 02:51:19;43301.00;0.14;75.60;0.00;0.00;0.62;;;;;4.60;1.00;;;;;;2271889;61;1084;-85
2021/01/03 02:53:45;0.00;0.00;0.62;0.00;0.00;0.62;;;;;4.80;1.00;;;;;;2266028;61;1026;-85
2021/01/03 02:56:12;0.00;0.00;0.62;0.00;0.00;0.62;;;;;5.00;1.00;;;;;;2268468;61;1442;-87
2021/01/03 02:58:39;6884.00;0.02;12.55;0.00;0.00;0.62;;;;;5.00;1.00;;;;;;2268601;61;1076;-87
2021/01/03 03:01:05;0.00;0.00;0.62;0.00;0.00;0.62;;;;;5.10;1.00;;;;;;2268562;61;1037;-86
2021/01/03 03:03:32;143944.00;0.48;249.37;12776.00;0.04;22.76;;;;;5.30;1.00;;;;;;2261872;61;1024;-86
2021/01/03 03:09:20;11918.00;0.04;21.27;0.00;0.00;0.62;;;;;5.20;1.00;;;;;;2268601;61;690;-86
2021/01/03 03:11:48;111840.00;0.37;194.00;0.00;0.00;0.62;;;;;4.90;1.00;;;;;;2268551;61;1061;-86
2021/01/03 03:14:15;47522.00;0.16;82.90;0.00;0.00;0.62;;;;;4.90;1.00;;;;;;2270850;61;1020;-85
2021/01/03 03:16:42;32411.00;0.11;56.76;0.00;0.00;0.62;;;;;4.90;1.00;;;;;;2265912;61;1508;-85
2021/01/03 03:19:08;0.00;0.00;0.62;0.00;0.00;0.62;;;;;4.90;1.00;;;;;;2265913;61;1145;-86
2021/01/03 03:21:35;0.00;0.00;0.62;0.00;0.00;0.62;;;;;4.80;1.00;;;;;;2265985;61;1100;-85
2021/01/03 03:24:02;6354.00;0.02;11.63;0.00;0.00;0.62;;;;;4.90;1.00;;;;;;2273657;61;1108;-85
2021/01/03 03:26:28;111004.00;0.37;192.56;0.00;0.00;0.62;;;;;4.80;1.00;;;;;;2269886;61;2040;-86
2021/01/03 03:28:55;97407.00;0.32;169.10;0.00;0.00;0.62;;;;;4.90;1.00;;;;;;2273659;61;1071;-87
2021/01/03 03:31:28;26255.00;0.09;46.10;0.00;0.00;0.62;;;;;4.70;1.00;;;;;;2273568;61;1061;-85
2021/01/03 03:33:54;52162.00;0.17;90.93;0.00;0.00;0.62;;;;;4.70;1.00;;;;;;2269950;61;1073;-86
2021/01/03 03:36:20;73377.00;0.24;127.60;0.00;0.00;0.62;;;;;4.80;1.00;;;;;;2266601;61;1397;-86
2021/01/03 03:38:47;0.00;0.00;0.62;0.00;0.00;0.62;;;;;4.80;1.00;;;;;;2273671;61;1066;-87
2021/01/03 03:41:18;20959.00;0.07;36.93;0.00;0.00;0.62;;;;;4.80;1.00;;;;;;2269880;61;1053;-86
2021/01/03 03:43:46;66312.00;0.22;115.39;0.00;0.00;0.62;;;;;5.00;1.00;;;;;;2269920;61;1026;-86
2021/01/03 03:46:12;2957.00;0.01;5.75;0.00;0.00;0.62;;;;;4.90;1.00;;;;;;2273581;61;1371;-85
2021/01/03 03:48:39;35994.00;0.12;62.96;0.00;0.00;0.62;;;;;4.90;1.00;;;;;;2273555;61;2000;-86
2021/01/03 03:51:06;9581.00;0.03;17.22;0.00;0.00;0.62;;;;;5.00;1.00;;;;;;2273631;61;982;-85
2021/01/03 03:53:33;0.00;0.00;0.62;0.00;0.00;0.62;;;;;5.30;1.00;;;;;;2273578;61;1243;-85
2021/01/03 03:55:59;10123.00;0.03;18.16;0.00;0.00;0.62;;;;;5.60;1.00;;;;;;2273557;61;1441;-86
2021/01/03 03:58:26;0.00;0.00;0.62;0.00;0.00;0.62;;;;;5.40;1.00;;;;;;2273551;61;1070;-86
2021/01/03 04:00:54;40780.00;0.14;71.24;0.00;0.00;0.62;;;;;5.20;1.00;;;;;;2273590;61;1161;-86
2021/01/03 04:03:20;299862.00;1.00;517.68;73544.00;0.25;127.88;;;;;5.20;1.00;;;;;;2273572;61;1074;-87
2021/01/03 04:05:48;42207.00;0.14;73.71;0.00;0.00;0.62;;;;;5.30;1.00;;;;;;2266483;61;1470;-85
2021/01/03 04:08:15;28547.00;0.10;50.07;0.00;0.00;0.62;;;;;5.20;1.00;;;;;;2273570;61;1993;-85
2021/01/03 04:10:41;5255.00;0.02;9.73;0.00;0.00;0.62;;;;;5.20;1.00;;;;;;2269831;61;1148;-86
2021/01/03 04:13:08;0.00;0.00;0.62;0.00;0.00;0.62;;;;;5.10;1.00;;;;;;2266566;61;1151;-86
2021/01/03 04:15:35;57046.00;0.19;99.37;0.00;0.00;0.62;;;;;5.00;1.00;;;;;;2266508;61;1336;-86
2021/01/03 04:18:02;66688.00;0.22;116.04;0.00;0.00;0.62;;;;;4.80;1.00;;;;;;2269825;61;1112;-85
2021/01/03 04:20:28;40807.00;0.14;71.28;0.00;0.00;0.62;;;;;4.80;1.00;;;;;;2273557;61;1073;-86
2021/01/03 04:22:56;11125.00;0.04;19.90;0.00;0.00;0.62;;;;;4.70;1.00;;;;;;2266465;61;1056;-86
2021/01/03 04:25:23;39408.00;0.13;68.86;0.00;0.00;0.62;;;;;4.60;1.00;;;;;;2269694;61;1452;-85
2021/01/03 04:27:53;20404.00;0.07;35.97;0.00;0.00;0.62;;;;;4.60;1.00;;;;;;2273467;61;1923;-86
2021/01/03 04:30:22;0.00;0.00;0.62;0.00;0.00;0.62;;;;;4.70;1.00;;;;;;2269695;61;1066;-87
2021/01/03 04:32:48;50747.00;0.17;88.48;0.00;0.00;0.62;;;;;4.70;1.00;;;;;;2273499;61;1022;-86
2021/01/03 04:35:16;67248.00;0.22;117.00;0.00;0.00;0.62;;;;;4.60;1.00;;;;;;2266319;61;1316;-85
2021/01/03 04:37:42;0.00;0.00;0.62;0.00;0.00;0.62;;;;;4.70;1.00;;;;;;2269725;61;962;-87
2021/01/03 04:40:18;0.00;0.00;0.62;0.00;0.00;0.62;;;;;4.70;1.00;;;;;;2269747;61;1139;-86
2021/01/03 04:42:45;0.00;0.00;0.62;0.00;0.00;0.62;;;;;4.70;1.00;;;;;;2273348;61;1779;-85
2021/01/03 04:45:20;25215.00;0.08;44.30;0.00;0.00;0.62;;;;;5.00;1.00;;;;;;2273455;61;1358;-86
2021/01/03 04:47:55;60336.00;0.20;105.06;0.00;0.00;0.62;;;;;5.10;1.00;;;;;;2269698;61;1951;-85
2021/01/03 04:50:34;114136.00;0.38;197.97;0.00;0.00;0.62;;;;;4.90;1.00;;;;;;2266392;61;1129;-86
2021/01/03 04:53:15;12380.00;0.04;22.07;0.00;0.00;0.62;;;;;4.80;1.00;;;;;;2266431;61;1127;-88
2021/01/03 04:55:48;61540.00;0.21;107.14;0.00;0.00;0.62;;;;;4.70;1.00;;;;;;2266326;61;1477;-86
2021/01/03 04:58:31;8055.00;0.03;14.58;0.00;0.00;0.62;;;;;4.70;1.00;;;;;;2273457;61;988;-86
2021/01/03 05:01:16;95097.00;0.32;165.11;0.00;0.00;0.62;;;;;4.60;1.00;;;;;;2266391;61;1152;-85
2021/01/03 05:04:20;0.00;0.00;0.62;0.00;0.00;0.62;;;;;4.50;1.00;;;;;;2273390;61;984;-86
2021/01/03 05:06:52;103123.00;0.34;178.96;0.00;0.00;0.62;;;;;4.50;1.00;;;;;;2269549;61;1915;-87
2021/01/03 05:09:18;39791.00;0.13;69.53;0.00;0.00;0.62;;;;;4.50;1.00;;;;;;2264825;61;1124;-85
2021/01/03 05:11:55;32254.00;0.11;56.48;0.00;0.00;0.62;;;;;4.60;1.00;;;;;;2264945;61;1048;-85
2021/01/03 05:14:30;0.00;0.00;0.62;0.00;0.00;0.62;;;;;4.60;1.00;;;;;;2264679;61;1135;-85
2021/01/03 05:16:58;20911.00;0.07;36.85;0.00;0.00;0.62;;;;;4.70;1.00;;;;;;2258250;61;1059;-84
2021/01/03 05:19:25;0.00;0.00;0.62;0.00;0.00;0.62;;;;;4.80;1.00;;;;;;2261538;61;1149;-85
2021/01/03 05:21:53;0.00;0.00;0.62;0.00;0.00;0.62;;;;;4.60;1.00;;;;;;2264768;61;1145;-87
2021/01/03 05:24:23;0.00;0.00;0.62;0.00;0.00;0.62;;;;;4.60;1.00;;;;;;2264679;61;1219;-86
2021/01/03 05:26:51;33088.00;0.11;57.93;0.00;0.00;0.62;;;;;4.50;1.00;;;;;;2267124;61;2004;-86
2021/01/03 05:29:24;239028.00;0.80;413.08;30651.00;0.10;53.71;;;;;4.70;1.00;;;;;;2266129;61;1053;-87
2021/01/03 05:32:00;0.00;0.00;0.62;0.00;0.00;0.62;;;;;4.60;1.00;;;;;;2273182;61;1242;-87
2021/01/03 05:34:35;0.00;0.00;0.62;0.00;0.00;0.62;;;;;4.80;1.00;;;;;;2266078;61;1109;-87
2021/01/03 05:37:07;43161.00;0.14;75.36;0.00;0.00;0.62;;;;;4.90;1.00;;;;;;2264586;61;1153;-87
2021/01/03 05:39:35;0.00;0.00;0.62;0.00;0.00;0.62;;;;;4.90;1.00;;;;;;2264680;61;1049;-87
2021/01/03 05:42:22;23953.00;0.08;42.11;0.00;0.00;0.62;;;;;5.00;1.00;;;;;;2264596;61;1149;-86
2021/01/03 05:44:57;0.00;0.00;0.62;0.00;0.00;0.62;;;;;5.00;1.00;;;;;;2264126;61;1467;-87
2021/01/03 05:47:29;27795.00;0.09;48.77;0.00;0.00;0.62;;;;;5.20;1.00;;;;;;2261166;61;1907;-86
2021/01/03 05:50:16;0.00;0.00;0.62;0.00;0.00;0.62;;;;;5.10;1.00;;;;;;2264569;61;1057;-88
2021/01/03 05:52:50;0.00;0.00;0.62;0.00;0.00;0.62;;;;;4.80;1.00;;;;;;2267959;61;1195;-87
2021/01/03 05:55:26;12995.00;0.04;23.14;0.00;0.00;0.62;;;;;4.80;1.00;;;;;;2261302;61;1468;-87
2021/01/03 05:58:20;42550.00;0.14;74.30;0.00;0.00;0.62;;;;;4.80;1.00;;;;;;2264720;61;1025;-85
2021/01/03 06:00:48;79369.00;0.26;137.95;1944.00;0.01;3.99;;;;;4.70;1.00;;;;;;2244526;61;1195;-87
2021/01/03 06:03:27;0.00;0.00;0.62;0.00;0.00;0.62;;;;;4.70;1.00;;;;;;2260695;61;1116;-87
2021/01/03 06:05:57;47648.00;0.16;83.12;0.00;0.00;0.62;;;;;4.70;1.00;;;;;;2250712;61;1460;-86
2021/01/03 06:08:25;123864.00;0.41;214.75;0.00;0.00;0.62;;;;;4.80;1.00;;;;;;2254069;61;1923;-87
2021/01/03 06:10:53;6488.00;0.02;11.86;0.00;0.00;0.62;;;;;4.80;1.00;;;;;;2254045;61;1300;-87
2021/01/03 06:13:24;161947.00;0.54;280.39;92379.00;0.31;160.42;;;;;4.70;1.00;;;;;;2250770;61;1268;-85
2021/01/03 06:15:55;13321.00;0.04;23.70;0.00;0.00;0.62;;;;;4.80;1.00;;;;;;2250739;61;1464;-86
2021/01/03 06:18:34;159850.00;0.53;276.78;2767.00;0.01;5.42;;;;;4.70;1.00;;;;;;2250727;61;1151;-87
2021/01/03 06:21:01;0.00;0.00;0.62;0.00;0.00;0.62;;;;;4.70;1.00;;;;;;2254052;61;1201;-87
2021/01/03 06:23:33;0.00;0.00;0.62;0.00;0.00;0.62;;;;;5.00;1.00;;;;;;2254028;61;1125;-87
2021/01/03 06:26:07;40683.00;0.14;71.07;0.00;0.00;0.62;;;;;5.20;1.00;;;;;;2250709;61;1452;-86
2021/01/03 06:28:44;0.00;0.00;0.62;0.00;0.00;0.62;;;;;5.20;1.00;;;;;;2253997;61;2023;-87
2021/01/03 06:31:49;77251.00;0.26;134.29;0.00;0.00;0.62;;;;;5.20;1.00;;;;;;2250728;61;1071;-85
2021/01/03 06:34:25;0.00;0.00;0.62;0.00;0.00;0.62;;;;;5.30;1.00;;;;;;2238156;61;1113;-86
2021/01/03 06:37:09;39552.00;0.13;69.11;0.00;0.00;0.62;;;;;5.20;1.00;;;;;;2242287;61;1514;-84
2021/01/03 06:39:53;0.00;0.00;0.62;0.00;0.00;0.62;;;;;5.40;1.00;;;;;;2256664;61;1007;-85
2021/01/03 06:43:13;15621.00;0.05;27.69;0.00;0.00;0.62;;;;;5.30;1.00;;;;;;2256666;61;1100;-85
2021/01/03 06:46:13;180163.00;0.60;311.77;86481.00;0.29;150.23;;;;;5.20;1.00;;;;;;2236400;61;1338;-84
2021/01/03 06:49:13;219026.00;0.73;378.67;88718.00;0.30;154.09;;;;;5.40;1.00;;;;;;2246704;61;2020;-84
2021/01/03 06:52:17;400453.00;1.33;690.58;91944.00;0.31;159.66;;;;;5.30;1.00;;;;;;2249972;61;1275;-86
2021/01/03 06:55:11;351701.00;1.17;606.78;92472.00;0.31;160.58;;;;;5.30;1.00;;;;;;2249904;61;1503;-86
2021/01/03 06:58:04;421701.00;1.41;727.12;96616.00;0.32;167.73;;;;;5.30;1.00;;;;;;2249842;61;1142;-84
2021/01/03 07:00:41;414978.00;1.38;715.56;95326.00;0.32;165.50;;;;;5.20;1.00;;;;;;2256578;61;1060;-84
2021/01/03 07:03:14;221139.00;0.74;382.30;90149.00;0.30;156.56;;;;;5.10;1.00;;;;;;2256590;61;1115;-85
2021/01/03 07:05:51;343636.00;1.15;592.92;114133.00;0.38;197.96;;;;;5.00;1.00;;;;;;2246611;61;1472;-84
2021/01/03 07:08:21;451491.00;1.50;778.35;90400.00;0.30;157.00;;;;;4.90;1.00;;;;;;2256406;61;1923;-86
2021/01/03 07:10:48;357602.00;1.19;616.93;102869.00;0.34;178.52;;;;;4.90;1.00;;;;;;2267723;61;1065;-85
2021/01/03 07:13:38;363608.00;1.21;627.25;104651.00;0.35;181.60;;;;;4.90;1.00;;;;;;2265884;61;1118;-87
2021/01/03 07:16:08;234248.00;0.78;404.86;91696.00;0.31;159.24;;;;;4.90;1.00;;;;;;2272846;61;1478;-87
2021/01/03 07:18:50;16942.00;0.06;29.97;0.00;0.00;0.62;;;;;4.90;1.00;;;;;;2272766;61;911;-86
2021/01/03 07:21:37;0.00;0.00;0.62;0.00;0.00;0.62;;;;;5.00;1.00;;;;;;2265824;61;1260;-87
2021/01/03 07:24:31;0.00;0.00;0.62;0.00;0.00;0.62;;;;;5.00;1.00;;;;;;2265921;61;1147;-86
2021/01/03 07:27:33;0.00;0.00;0.62;0.00;0.00;0.62;;;;;5.60;1.00;;;;;;2265900;61;2001;-87
2021/01/03 07:30:44;425894.00;1.42;734.33;80157.00;0.27;139.31;;;;;6.80;1.00;;;;;;2265882;61;1259;-87
2021/01/03 07:33:23;64209.00;0.21;111.75;0.00;0.00;0.62;;;;;7.80;1.00;;;;;;2265861;61;1247;-87
2021/01/03 07:35:50;116116.00;0.39;201.38;0.00;0.00;0.62;;;;;8.50;1.00;;;;;;2269060;61;1356;-87
2021/01/03 07:38:31;474356.00;1.58;817.68;85441.00;0.28;148.43;;;;;8.80;1.00;;;;;;2269091;61;1267;-87
2021/01/03 07:41:05;400670.00;1.34;690.96;90509.00;0.30;157.19;;;;;9.00;1.00;;;;;;2269246;61;1107;-87
2021/01/03 07:43:54;533874.00;1.78;920.17;89342.00;0.30;155.17;;;;;9.20;1.00;;;;;;2272745;61;1878;-87
2021/01/03 07:46:45;148508.00;0.50;257.24;0.00;0.00;0.62;;;;;9.40;1.00;;;;;;2269060;61;1407;-87
2021/01/03 07:49:31;50282.00;0.17;87.67;0.00;0.00;0.62;;;;;9.50;1.00;;;;;;2264132;61;2015;-87
2021/01/03 07:52:01;0.00;0.00;0.62;0.00;0.00;0.62;;;;;9.80;1.00;;;;;;2257538;61;1143;-88
2021/01/03 07:54:27;97879.00;0.33;169.91;0.00;0.00;0.62;;;;;9.80;1.00;;;;;;2254128;61;1069;-88
2021/01/03 07:56:54;263825.00;0.88;455.73;91102.00;0.30;158.21;;;;;9.80;1.00;;;;;;2264311;61;1117;-88
2021/01/03 07:59:20;214944.00;0.72;371.64;98181.00;0.33;170.43;;;;;9.40;1.00;;;;;;2257617;61;1189;-87
2021/01/03 08:01:52;178460.00;0.59;308.84;100787.00;0.34;174.93;;;;;9.70;1.00;;;;;;2257194;61;1276;-88
2021/01/03 08:04:27;272565.00;0.91;470.75;91229.00;0.30;158.43;;;;;10.00;1.00;;;;;;2257506;61;1199;-88
2021/01/03 08:07:04;311231.00;1.04;537.23;89107.00;0.30;154.77;;;;;10.30;1.00;;;;;;2260550;61;2002;-87
2021/01/03 08:09:31;468330.00;1.56;807.32;89794.00;0.30;155.95;;;;;10.30;1.00;;;;;;2256424;61;1167;-87
2021/01/03 08:12:08;384305.00;1.28;662.83;95777.00;0.32;166.28;;;;;10.30;1.00;;;;;;2256773;61;1129;-87
2021/01/03 08:14:40;504178.00;1.68;869.02;90591.00;0.30;157.33;;;;;10.40;1.00;;;;;;2244708;61;1354;-87
2021/01/03 08:17:08;543611.00;1.81;936.95;119182.00;0.40;206.67;;;;;10.60;1.00;;;;;;2244971;62;1153;-86
2021/01/03 08:19:37;352884.00;1.18;608.82;86399.00;0.29;150.09;;;;;10.70;1.00;;;;;;2234985;62;1260;-87
2021/01/03 08:22:05;357516.00;1.19;616.78;88157.00;0.29;153.13;;;;;10.90;1.00;;;;;;2238209;62;1118;-87
2021/01/03 08:24:34;385898.00;1.29;665.56;112408.00;0.37;194.98;;;;;11.00;1.00;;;;;;2245275;61;1326;-87
2021/01/03 08:27:09;335287.00;1.12;578.57;85565.00;0.29;148.65;;;;;11.00;1.00;;;;;;2258690;61;1928;-87
2021/01/03 08:29:41;408582.00;1.36;704.56;85765.00;0.29;148.99;;;;;10.90;1.00;;;;;;2264610;61;1212;-87
2021/01/03 08:32:12;372273.00;1.24;642.14;87588.00;0.29;152.14;;;;;10.90;1.00;;;;;;2267339;61;1115;-87
2021/01/03 08:34:42;468875.00;1.56;808.25;87232.00;0.29;151.53;;;;;10.70;1.00;;;;;;2266083;61;1459;-87
2021/01/03 08:37:19;391892.00;1.31;675.87;88659.00;0.30;153.99;;;;;10.60;1.00;;;;;;2273204;61;1025;-87
2021/01/03 08:39:46;314195.00;1.05;542.32;0.00;0.00;0.62;;;;;10.90;1.00;;;;;;2268292;61;1227;-88
2021/01/03 08:42:19;342013.00;1.14;590.13;89781.00;0.30;155.93;;;;;11.10;1.00;;;;;;2268246;61;1160;-88
2021/01/03 08:44:51;420602.00;1.40;725.23;97305.00;0.32;168.92;;;;;10.30;1.00;;;;;;2268530;61;1299;-87
2021/01/03 08:47:23;324803.00;1.08;560.55;87726.00;0.29;152.38;;;;;10.30;1.00;;;;;;2268537;61;1993;-88
2021/01/03 08:50:01;278222.00;0.93;480.48;86984.00;0.29;151.10;;;;;10.10;1.00;;;;;;2262160;61;1283;-86
2021/01/03 08:52:28;419508.00;1.40;723.34;85479.00;0.28;148.50;;;;;10.00;1.00;;;;;;2268851;61;1199;-86
2021/01/03 08:55:07;432678.00;1.44;745.99;82908.00;0.28;144.06;;;;;9.70;1.00;;;;;;2268717;61;1341;-86
2021/01/03 08:57:35;360081.00;1.20;621.19;0.00;0.00;0.62;;;;;9.60;1.00;;;;;;2271413;61;1175;-87
2021/01/03 09:00:03;693832.00;2.31;1196.54;85095.00;0.28;147.84;;;;;9.80;1.00;;;;;;2273223;61;1089;-88
2021/01/03 09:02:30;507879.00;1.69;875.39;90132.00;0.30;156.54;;;;;10.10;1.00;;;;;;2272634;61;1176;-88
2021/01/03 09:05:01;376950.00;1.26;650.18;87479.00;0.29;151.95;;;;;10.20;1.00;;;;;;2273241;61;1358;-88
2021/01/03 09:07:35;344933.00;1.15;595.15;88146.00;0.29;153.11;;;;;10.40;1.00;;;;;;2264646;61;1931;-88
2021/01/03 09:10:04;428236.00;1.43;738.35;89650.00;0.30;155.70;;;;;10.60;1.00;;;;;;2258099;61;1273;-87
2021/01/03 09:12:37;525978.00;1.75;906.56;91741.00;0.31;159.31;;;;;10.50;1.00;;;;;;2254765;61;991;-88
2021/01/03 09:15:10;422650.00;1.41;728.75;86867.00;0.29;150.90;;;;;10.20;1.00;;;;;;2252363;61;1420;-88
2021/01/03 09:17:40;561515.00;1.87;967.81;84278.00;0.28;146.43;;;;;10.20;1.00;;;;;;2251793;61;1252;-88
2021/01/03 09:20:22;459411.00;1.53;791.97;87410.00;0.29;151.84;;;;;9.80;1.00;;;;;;2251958;61;1097;-88
2021/01/03 09:22:54;630827.00;2.10;1087.48;85425.00;0.28;148.41;;;;;9.20;1.00;;;;;;2248304;61;1203;-88
2021/01/03 09:25:24;295973.00;0.99;511.00;0.00;0.00;0.62;;;;;8.70;1.00;;;;;;2252843;61;1475;-88
2021/01/03 09:27:56;558569.00;1.86;962.73;97525.00;0.33;169.30;;;;;9.00;1.00;;;;;;2257843;61;1920;-88
2021/01/03 09:30:27;500266.00;1.67;862.28;80504.00;0.27;139.91;;;;;8.50;1.00;;;;;;2258059;61;1097;-86
2021/01/03 09:33:06;528577.00;1.76;911.04;85051.00;0.28;147.76;;;;;8.20;1.00;;;;;;2265523;61;1099;-88
2021/01/03 09:35:48;260927.00;0.87;450.74;0.00;0.00;0.62;;;;;8.10;1.00;;;;;;2272666;61;1425;-87
2021/01/03 09:38:36;87296.00;0.29;151.64;0.00;0.00;0.62;;;;;8.00;1.00;;;;;;2264344;61;1132;-87
2021/01/03 09:41:16;203862.00;0.68;352.57;0.00;0.00;0.62;;;;;7.80;1.00;;;;;;2264728;61;982;-86
2021/01/03 09:44:01;568739.00;1.90;980.27;87080.00;0.29;151.27;;;;;7.50;1.00;;;;;;2264719;61;1080;-86
2021/01/03 09:46:31;634523.00;2.12;1093.87;122261.00;0.41;211.98;;;;;7.30;1.00;;;;;;2264748;61;1455;-88
2021/01/03 09:49:19;284855.00;0.95;491.88;103356.00;0.34;179.36;;;;;7.20;1.00;;;;;;2264702;61;1993;-87
2021/01/03 09:51:59;235540.00;0.79;407.08;0.00;0.00;0.62;;;;;7.00;1.00;;;;;;2261381;61;1027;-86
2021/01/03 09:54:40;460911.00;1.54;794.55;62735.00;0.21;109.20;;;;;7.00;1.00;;;;;;2256644;61;1099;-87
2021/01/03 09:57:06;264993.00;0.88;457.73;0.00;0.00;0.62;;;;;7.40;1.00;;;;;;2263571;61;1089;-86
2021/01/03 09:59:33;302798.00;1.01;522.73;0.00;0.00;0.62;;;;;7.40;1.00;;;;;;2264707;61;1036;-87
2021/01/03 10:02:16;350423.00;1.17;604.59;87492.00;0.29;151.98;;;;;6.90;1.00;;;;;;2264718;61;1134;-88
2021/01/03 10:04:45;423202.00;1.41;729.70;72329.00;0.24;125.78;;;;;6.90;1.00;;;;;;2264724;61;1435;-86
2021/01/03 10:07:14;335273.00;1.12;578.55;0.00;0.00;0.62;;;;;6.40;1.00;;;;;;2264663;61;1994;-87
2021/01/03 10:09:52;414315.00;1.38;714.42;0.00;0.00;0.62;;;;;6.00;1.00;;;;;;2264663;61;1098;-86
2021/01/03 10:12:24;119600.00;0.40;207.39;0.00;0.00;0.62;;;;;5.70;1.00;;;;;;2268489;61;1042;-87
2021/01/03 10:15:02;210245.00;0.70;363.56;0.00;0.00;0.62;;;;;5.80;1.00;;;;;;2273100;61;1477;-87
2021/01/03 10:17:28;45794.00;0.15;79.91;0.00;0.00;0.62;;;;;5.70;1.00;;;;;;2273148;61;1141;-87
2021/01/03 10:19:55;325896.00;1.09;562.43;0.00;0.00;0.62;;;;;5.60;1.00;;;;;;2273086;61;1059;-86
2021/01/03 10:22:28;171056.00;0.57;296.09;0.00;0.00;0.62;;;;;5.70;1.00;;;;;;2273068;61;1157;-87
2021/01/03 10:24:57;329199.00;1.10;568.11;0.00;0.00;0.62;;;;;5.80;1.00;;;;;;2273027;61;1418;-88
2021/01/03 10:27:24;340864.00;1.14;588.16;0.00;0.00;0.62;;;;;6.10;1.00;;;;;;2273041;61;1927;-87
2021/01/03 10:29:51;321284.00;1.07;554.51;0.00;0.00;0.62;;;;;6.10;1.00;;;;;;2273004;61;1563;-88
2021/01/03 10:32:18;324556.00;1.08;560.13;91119.00;0.30;158.24;;;;;6.40;1.00;;;;;;2272894;61;1097;-87
2021/01/03 10:34:44;252695.00;0.84;436.59;86639.00;0.29;150.50;;;;;6.50;1.00;;;;;;2273008;61;1422;-88